Arlington, TX

8:52 PM CDT on September 28, 2016 (GMT -0500)
Grand Prairie | | Change Station

Elev 663 ft 32.70 °N, 97.10 °W | Updated 14 minutes ago

Clear
Clear
81.4 °F
Feels Like 81 °F
N
2.0
Wind Variable Wind from WSW
Gusts 2.0 mph

Today
High -- | Low -- °F
--% Chance of Precip.
Yesterday
High -- | Low -- °F
Precip. -- in
Pressure 30.03 in
Visibility 10.0 miles
Clouds Clear
Heat Index 81 °F
Dew Point 55 °F
Humidity 40%
Rainfall 0.00 in
Snow Depth Not available.
7:20 AM 7:16 PM
Waning Crescent, 4% visible
METAR KGKY 290053Z AUTO 00000KT 10SM CLR 21/15 A3004 RMK AO2 SLP169 T02110150
Pressure 30.03 in
Visibility 10.0 miles
Clouds Clear
Heat Index 81 °F
Dew Point 55 °F
Humidity 40%
Rainfall 0.00 in
Snow Depth Not available.
7:20 AM 7:16 PM
Waning Crescent, 4% visible
METAR KGKY 290053Z AUTO 00000KT 10SM CLR 21/15 A3004 RMK AO2 SLP169 T02110150

10-Day Weather Forecast

Almanac

Astronomy

Sep. 28, 2016 Rise Set
Actual Time
Civil Twilight
Nautical Twilight
Astronomical Twilight
Moon
Length of Visible Light
Length of Day
Tomorrow will be .
, % of the Moon is Illuminated

Today's Extremes

State Highs State Lows

Community

WunderPhotos

Upload Photos

1,942,396 photos uploaded!

WunderBlog® & News

Nearby

Air Quality

  Air Quality AQ Index Pollutant
Not available.

Snow Depth

Station Depth Elevation

Earthquake Activity

City Distance Mag. Time & Date
Minimum magnitude displayed is 2.5.

Coastal Water Temperatures

Place Temperature

Stations

Nearby Weather Stations

Station Location Temp. Windchill Dew Point Humidity Wind Precip. Elev Updated Type
                   

Watches & Warnings

There are currently no watches in effect.